createdAt,value
2022-08-07T00:03:00.192Z,26.27
2022-08-07T00:05:30.131Z,26.25
2022-08-07T00:07:58.264Z,26.13
2022-08-07T00:10:32.482Z,25.94
2022-08-07T00:13:17.562Z,25.95
2022-08-07T00:16:17.377Z,25.97
2022-08-07T00:18:50.985Z,25.88
2022-08-07T00:21:55.403Z,25.72
2022-08-07T00:24:08.306Z,25.59
2022-08-07T00:26:59.047Z,25.57
2022-08-07T00:29:31.328Z,25.55
2022-08-07T00:31:59.958Z,25.48
2022-08-07T00:34:27.665Z,25.45
2022-08-07T00:36:56.825Z,25.42
2022-08-07T00:39:24.605Z,25.42
2022-08-07T00:42:02.181Z,25.45
2022-08-07T00:44:34.746Z,25.55
2022-08-07T00:47:06.432Z,25.47
2022-08-07T00:50:19.915Z,25.41
2022-08-07T00:52:33.315Z,25.39
2022-08-07T00:55:10.537Z,25.24
2022-08-07T00:57:38.453Z,25.17
2022-08-07T01:00:23.474Z,25.20
2022-08-07T01:02:51.708Z,25.06
2022-08-07T01:05:21.197Z,25.05
2022-08-07T01:07:53.031Z,25.00
2022-08-07T01:10:23.140Z,24.96
2022-08-07T01:12:54.673Z,24.97
2022-08-07T01:16:01.000Z,24.91
2022-08-07T01:18:16.929Z,24.88
2022-08-07T01:21:05.884Z,24.80
2022-08-07T01:23:51.794Z,24.81
2022-08-07T01:26:23.444Z,24.76
2022-08-07T01:28:56.439Z,24.81
2022-08-07T01:31:42.897Z,24.86
2022-08-07T01:34:18.578Z,24.85
2022-08-07T01:36:52.413Z,25.00
2022-08-07T01:39:41.087Z,25.07
2022-08-07T01:42:58.751Z,25.10
2022-08-07T01:45:36.988Z,24.97
2022-08-07T01:48:29.523Z,25.13
2022-08-07T01:52:01.242Z,25.09
2022-08-07T01:54:09.456Z,25.03
2022-08-07T01:57:04.282Z,25.06
2022-08-07T01:59:44.035Z,25.02
2022-08-07T02:02:32.481Z,25.06
2022-08-07T02:05:42.816Z,25.03
2022-08-07T02:08:10.227Z,25.00
2022-08-07T02:10:55.020Z,24.77
2022-08-07T02:13:57.786Z,24.72
2022-08-07T02:16:29.938Z,24.60
2022-08-07T02:19:05.717Z,24.63
2022-08-07T02:21:59.000Z,24.74
2022-08-07T02:24:30.507Z,24.76
2022-08-07T02:27:02.667Z,24.86
2022-08-07T02:29:34.345Z,24.86
2022-08-07T02:32:05.562Z,24.62
2022-08-07T02:34:34.779Z,24.61
2022-08-07T02:37:13.518Z,24.53
2022-08-07T02:40:02.008Z,24.41
2022-08-07T02:42:34.636Z,24.32
2022-08-07T02:45:07.453Z,24.21
2022-08-07T02:47:53.160Z,24.12
2022-08-07T02:50:21.391Z,23.97
2022-08-07T02:53:06.227Z,24.05
2022-08-07T02:56:03.309Z,23.73
2022-08-07T02:58:39.872Z,23.61
2022-08-07T03:01:36.576Z,23.64
2022-08-07T03:04:17.964Z,23.75
2022-08-07T03:06:48.923Z,23.58
2022-08-07T03:09:41.825Z,23.48
2022-08-07T03:12:22.059Z,23.57
2022-08-07T03:15:02.424Z,23.40
2022-08-07T03:17:53.785Z,23.54
2022-08-07T03:20:30.457Z,23.40
2022-08-07T03:23:02.981Z,23.28
2022-08-07T03:25:41.513Z,23.33
2022-08-07T03:28:37.324Z,23.31
2022-08-07T03:31:24.560Z,23.23
2022-08-07T03:34:00.153Z,23.24
2022-08-07T03:36:30.950Z,23.50
2022-08-07T03:39:05.857Z,23.46
2022-08-07T03:41:42.475Z,23.48
2022-08-07T03:44:17.029Z,23.38
2022-08-07T03:47:13.521Z,23.35
2022-08-07T03:49:38.507Z,23.33
2022-08-07T03:52:22.291Z,23.21
2022-08-07T03:54:55.150Z,23.11
2022-08-07T03:59:03.786Z,23.12
2022-08-07T04:00:30.246Z,23.01
2022-08-07T04:03:03.862Z,23.19
2022-08-07T04:05:42.294Z,22.95
2022-08-07T04:08:21.182Z,22.92
2022-08-07T04:12:20.669Z,23.20
2022-08-07T04:14:09.529Z,23.08
2022-08-07T04:16:37.778Z,23.26
2022-08-07T04:19:15.101Z,23.25
2022-08-07T04:22:04.892Z,22.92
2022-08-07T04:24:42.472Z,22.99
2022-08-07T04:27:15.260Z,23.04
2022-08-07T04:30:01.229Z,22.77
2022-08-07T04:32:44.816Z,22.80
2022-08-07T04:35:16.827Z,22.71
2022-08-07T04:38:03.043Z,23.10
2022-08-07T04:40:34.614Z,23.16
2022-08-07T04:43:04.782Z,22.91
2022-08-07T04:46:12.473Z,23.08
2022-08-07T04:49:37.818Z,23.19
2022-08-07T04:52:25.129Z,22.98
2022-08-07T04:58:12.790Z,22.82
2022-08-07T04:59:17.198Z,22.97
2022-08-07T05:01:46.477Z,23.15
2022-08-07T05:04:31.757Z,23.13
2022-08-07T05:07:36.852Z,22.94
2022-08-07T05:10:29.316Z,23.17
2022-08-07T05:14:44.924Z,22.97
2022-08-07T05:15:58.969Z,23.28
2022-08-07T05:18:32.122Z,23.16
2022-08-07T05:21:12.849Z,23.48
2022-08-07T05:24:16.904Z,23.52
2022-08-07T05:26:47.670Z,23.76
2022-08-07T05:29:18.243Z,23.76
2022-08-07T05:31:52.704Z,23.76
2022-08-07T05:34:27.697Z,23.81
2022-08-07T05:36:56.806Z,23.65
2022-08-07T05:40:12.754Z,23.99
2022-08-07T05:42:36.977Z,24.23
2022-08-07T05:45:26.075Z,24.51
2022-08-07T05:48:04.741Z,24.45
2022-08-07T05:50:43.422Z,24.82
2022-08-07T05:54:08.556Z,24.80
2022-08-07T05:56:06.811Z,24.78
2022-08-07T05:58:40.864Z,25.30
2022-08-07T06:01:20.406Z,25.52
2022-08-07T06:03:58.587Z,24.85
2022-08-07T06:06:38.275Z,24.71
2022-08-07T06:09:15.846Z,24.96
2022-08-07T06:11:47.490Z,24.94
2022-08-07T06:14:21.174Z,24.96
2022-08-07T06:16:57.339Z,24.79
2022-08-07T06:19:47.924Z,25.05
2022-08-07T06:22:27.289Z,24.99
2022-08-07T06:25:05.471Z,24.96
2022-08-07T06:28:00.636Z,25.02
2022-08-07T06:30:24.247Z,25.43
2022-08-07T06:33:15.613Z,25.63
2022-08-07T06:35:49.228Z,25.83
2022-08-07T06:38:35.158Z,25.97
2022-08-07T06:42:00.770Z,25.71
2022-08-07T06:44:21.792Z,25.26
2022-08-07T06:46:53.549Z,25.42
2022-08-07T06:49:52.022Z,24.81
2022-08-07T06:52:36.097Z,25.58
2022-08-07T06:55:32.991Z,25.65
2022-08-07T06:58:12.616Z,26.29
2022-08-07T07:00:52.962Z,25.61
2022-08-07T07:03:39.705Z,26.80
2022-08-07T07:06:11.621Z,27.36
2022-08-07T07:08:39.915Z,27.31
2022-08-07T07:12:09.096Z,27.08
2022-08-07T07:14:04.176Z,27.18
2022-08-07T07:16:49.955Z,27.06
2022-08-07T07:19:55.363Z,27.10
2022-08-07T07:22:36.322Z,26.83
2022-08-07T07:26:35.940Z,27.86
2022-08-07T07:28:42.118Z,28.05
2022-08-07T07:31:17.281Z,27.92
2022-08-07T07:33:57.095Z,26.77
2022-08-07T07:36:29.655Z,26.66
2022-08-07T07:39:02.701Z,26.76
2022-08-07T07:42:02.025Z,27.75
2022-08-07T07:44:26.147Z,28.60
2022-08-07T07:47:04.413Z,27.52
2022-08-07T07:50:35.391Z,27.75
2022-08-07T07:52:32.577Z,27.94
2022-08-07T07:55:01.126Z,27.77
2022-08-07T07:57:50.369Z,27.70
2022-08-07T08:00:29.837Z,28.20
2022-08-07T08:03:16.429Z,29.02
2022-08-07T08:05:54.958Z,28.07
2022-08-07T08:08:37.114Z,28.99
2022-08-07T08:11:16.173Z,29.30
2022-08-07T08:13:54.906Z,29.50
2022-08-07T08:16:29.571Z,29.56
2022-08-07T08:19:09.825Z,30.10
2022-08-07T08:22:08.124Z,29.84
2022-08-07T08:25:18.657Z,29.51
2022-08-07T08:27:56.603Z,29.12
2022-08-07T08:30:26.649Z,29.31
2022-08-07T08:32:59.070Z,30.12
2022-08-07T08:35:42.832Z,30.75
2022-08-07T08:38:18.051Z,30.29
2022-08-07T08:41:17.765Z,30.30
2022-08-07T08:44:00.872Z,30.18
2022-08-07T08:46:44.983Z,29.68
2022-08-07T08:49:19.271Z,29.62
2022-08-07T08:52:16.473Z,29.80
2022-08-07T08:54:57.043Z,29.37
2022-08-07T08:57:40.494Z,29.52
2022-08-07T09:00:10.437Z,29.96
2022-08-07T09:03:00.947Z,30.28
2022-08-07T09:05:55.037Z,30.58
2022-08-07T09:08:35.049Z,30.29
2022-08-07T09:11:14.063Z,30.49
2022-08-07T09:14:07.345Z,30.84
2022-08-07T09:16:57.521Z,30.59
2022-08-07T09:20:19.615Z,29.92
2022-08-07T09:24:31.603Z,30.18
2022-08-07T09:26:25.218Z,29.71
2022-08-07T09:30:05.170Z,31.04
2022-08-07T09:32:18.554Z,31.48
2022-08-07T09:36:02.989Z,31.65
2022-08-07T09:38:12.129Z,31.64
2022-08-07T09:41:11.168Z,31.41
2022-08-07T09:44:06.629Z,30.20
2022-08-07T09:47:42.586Z,30.71
2022-08-07T09:50:18.483Z,30.62
2022-08-07T09:52:53.880Z,30.88
2022-08-07T09:56:03.488Z,30.99
2022-08-07T09:58:42.410Z,31.01
2022-08-07T10:01:51.152Z,31.18
2022-08-07T10:04:39.303Z,30.97
2022-08-07T10:07:53.543Z,30.91
2022-08-07T10:11:59.452Z,29.82
2022-08-07T10:14:30.389Z,29.99
2022-08-07T10:17:29.901Z,30.22
2022-08-07T10:20:44.441Z,31.00
2022-08-07T10:24:06.513Z,31.70
2022-08-07T10:26:25.929Z,30.53
2022-08-07T10:29:40.508Z,31.26
2022-08-07T10:32:53.337Z,31.27
2022-08-07T10:35:53.451Z,31.72
2022-08-07T10:38:35.726Z,31.15
2022-08-07T10:41:46.473Z,31.86
2022-08-07T10:44:45.520Z,31.69
2022-08-07T10:47:53.959Z,32.50
2022-08-07T10:50:31.785Z,31.74
2022-08-07T10:53:21.385Z,32.28
2022-08-07T10:56:04.953Z,32.13
2022-08-07T10:58:59.654Z,31.98
2022-08-07T11:01:35.294Z,32.17
2022-08-07T11:04:43.717Z,32.69
2022-08-07T11:07:24.562Z,33.29
2022-08-07T11:10:19.049Z,32.96
2022-08-07T11:13:04.117Z,33.19
2022-08-07T11:15:38.719Z,33.06
2022-08-07T11:18:17.732Z,32.80
2022-08-07T11:21:11.409Z,32.99
2022-08-07T11:23:53.659Z,32.36
2022-08-07T11:26:38.501Z,32.17
2022-08-07T11:29:42.043Z,32.29
2022-08-07T11:32:10.564Z,32.21
2022-08-07T11:34:58.124Z,32.38
2022-08-07T11:37:57.307Z,32.52
2022-08-07T11:40:56.164Z,32.26
2022-08-07T11:43:41.511Z,32.46
2022-08-07T11:46:50.209Z,32.70
2022-08-07T11:50:30.642Z,33.28
2022-08-07T11:53:05.207Z,33.66
2022-08-07T11:56:09.405Z,32.76
2022-08-07T11:59:03.651Z,33.15
2022-08-07T12:02:30.159Z,33.07
2022-08-07T12:05:28.774Z,32.72
2022-08-07T12:08:35.228Z,33.66
2022-08-07T12:11:21.088Z,32.85
2022-08-07T12:14:08.581Z,32.25
2022-08-07T12:16:46.758Z,32.73
2022-08-07T12:19:21.666Z,32.64
2022-08-07T12:22:37.583Z,33.17
2022-08-07T12:26:00.312Z,32.82
2022-08-07T12:28:11.752Z,33.17
2022-08-07T12:30:46.700Z,32.47
2022-08-07T12:33:30.929Z,32.48
2022-08-07T12:36:16.331Z,32.54
2022-08-07T12:38:47.395Z,32.81
2022-08-07T12:41:49.147Z,32.88
2022-08-07T12:44:20.654Z,32.74
2022-08-07T12:47:07.378Z,33.58
2022-08-07T12:49:48.626Z,33.22
2022-08-07T12:52:34.595Z,33.79
2022-08-07T12:55:17.464Z,33.46
2022-08-07T12:58:01.432Z,34.03
2022-08-07T13:00:50.456Z,33.61
2022-08-07T13:04:02.167Z,33.38
2022-08-07T13:07:01.240Z,32.58
2022-08-07T13:10:19.401Z,32.22
2022-08-07T13:13:10.969Z,32.89
2022-08-07T13:16:05.538Z,32.68
2022-08-07T13:18:49.142Z,32.94
2022-08-07T13:21:50.553Z,33.63
2022-08-07T13:24:53.902Z,33.53
2022-08-07T13:28:05.629Z,33.59
2022-08-07T13:30:19.510Z,33.60
2022-08-07T13:34:32.138Z,33.36
2022-08-07T13:36:43.184Z,33.10
2022-08-07T13:40:33.117Z,33.81
2022-08-07T13:42:24.977Z,33.64
2022-08-07T13:44:55.198Z,33.69
2022-08-07T13:48:06.456Z,33.77
2022-08-07T13:50:45.082Z,33.81
2022-08-07T13:53:27.056Z,33.57
2022-08-07T13:56:36.327Z,33.85
2022-08-07T13:59:13.170Z,33.70
2022-08-07T14:02:04.361Z,33.43
2022-08-07T14:04:47.462Z,32.80
2022-08-07T14:07:22.791Z,33.62
2022-08-07T14:10:02.227Z,34.29
2022-08-07T14:12:53.998Z,33.60
2022-08-07T14:15:44.732Z,33.48
2022-08-07T14:18:39.011Z,33.95
2022-08-07T14:22:00.564Z,33.73
2022-08-07T14:24:18.165Z,33.61
2022-08-07T14:26:53.517Z,33.81
2022-08-07T14:30:06.320Z,34.19
2022-08-07T14:32:32.976Z,34.32
2022-08-07T14:35:05.751Z,34.16
2022-08-07T14:37:39.047Z,34.53
2022-08-07T14:40:26.247Z,34.33
2022-08-07T14:43:57.211Z,34.09
2022-08-07T14:45:56.673Z,34.08
2022-08-07T14:48:37.236Z,34.62
2022-08-07T14:51:15.747Z,34.75
2022-08-07T14:54:05.948Z,34.41
2022-08-07T14:56:35.277Z,34.27
2022-08-07T14:59:13.974Z,34.31
2022-08-07T15:01:58.310Z,34.08
2022-08-07T15:04:26.369Z,33.70
2022-08-07T15:06:57.414Z,33.19
2022-08-07T15:09:58.352Z,33.70
2022-08-07T15:12:25.564Z,34.20
2022-08-07T15:15:21.216Z,34.30
2022-08-07T15:17:59.738Z,34.22
2022-08-07T15:25:02.462Z,33.84
2022-08-07T15:26:28.622Z,33.83
2022-08-07T15:30:04.386Z,33.65
2022-08-07T15:32:01.554Z,33.66
2022-08-07T15:40:33.981Z,32.95
2022-08-07T15:43:53.424Z,33.13
2022-08-07T15:46:31.921Z,33.21
2022-08-07T15:49:12.859Z,33.20
2022-08-07T15:54:39.312Z,32.98
2022-08-07T15:57:39.616Z,32.62
2022-08-07T16:00:07.540Z,32.51
2022-08-07T16:02:41.668Z,32.66
2022-08-07T16:05:19.465Z,32.44
2022-08-07T16:08:32.499Z,32.36
2022-08-07T16:10:47.216Z,32.21
2022-08-07T16:14:17.259Z,32.10
2022-08-07T16:16:59.902Z,32.15
2022-08-07T16:20:02.769Z,32.23
2022-08-07T16:23:09.896Z,32.11
2022-08-07T16:25:54.649Z,32.01
2022-08-07T16:30:08.294Z,31.95
2022-08-07T16:31:51.754Z,32.00
2022-08-07T16:34:48.413Z,31.99
2022-08-07T16:38:05.477Z,32.06
2022-08-07T16:41:08.098Z,31.89
2022-08-07T16:44:04.264Z,31.61
2022-08-07T16:47:06.747Z,31.60
2022-08-07T16:50:27.973Z,31.52
2022-08-07T16:54:02.413Z,31.44
2022-08-07T16:56:13.258Z,31.26
2022-08-07T16:59:11.000Z,31.12
2022-08-07T17:02:51.651Z,31.21
2022-08-07T17:06:19.275Z,31.09
2022-08-07T17:08:19.203Z,30.94
2022-08-07T17:10:56.805Z,30.98
2022-08-07T17:14:17.555Z,30.81
2022-08-07T17:16:33.791Z,30.90
2022-08-07T17:19:06.521Z,30.78
2022-08-07T17:21:59.164Z,30.56
2022-08-07T17:24:30.302Z,30.56
2022-08-07T17:27:19.648Z,30.54
2022-08-07T17:30:16.083Z,30.39
2022-08-07T17:34:08.620Z,30.29
2022-08-07T17:36:20.723Z,30.22
2022-08-07T17:39:00.725Z,30.15
2022-08-07T17:42:04.207Z,30.09
2022-08-07T17:44:50.213Z,30.05
2022-08-07T17:47:41.931Z,29.85
2022-08-07T17:50:47.123Z,29.85
2022-08-07T17:54:00.228Z,29.81
2022-08-07T17:56:29.372Z,29.73
2022-08-07T17:59:35.863Z,29.65
2022-08-07T18:02:16.752Z,29.61
2022-08-07T18:05:22.111Z,29.58
2022-08-07T18:08:24.469Z,29.53
2022-08-07T18:12:11.909Z,29.48
2022-08-07T18:14:37.338Z,29.46
2022-08-07T18:18:45.834Z,29.34
2022-08-07T18:21:08.441Z,29.29
2022-08-07T18:23:43.017Z,29.22
2022-08-07T18:26:19.065Z,29.20
2022-08-07T18:28:57.769Z,29.10
2022-08-07T18:31:50.131Z,28.92
2022-08-07T18:35:15.815Z,28.83
2022-08-07T18:38:56.754Z,28.88
2022-08-07T18:40:53.822Z,28.84
2022-08-07T18:44:03.878Z,28.78
2022-08-07T18:47:22.519Z,28.77
2022-08-07T18:50:43.798Z,28.71
2022-08-07T18:53:14.031Z,28.69
2022-08-07T18:56:12.498Z,28.70
2022-08-07T18:58:55.058Z,28.71
2022-08-07T19:02:19.301Z,28.65
2022-08-07T19:04:56.113Z,28.60
2022-08-07T19:07:51.993Z,28.48
2022-08-07T19:10:49.791Z,28.52
2022-08-07T19:13:33.963Z,28.47
2022-08-07T19:16:43.649Z,28.40
2022-08-07T19:19:41.865Z,28.37
2022-08-07T19:22:30.698Z,28.31
2022-08-07T19:25:05.630Z,28.32
2022-08-07T19:28:29.160Z,28.11
2022-08-07T19:31:05.119Z,28.11
2022-08-07T19:33:33.555Z,28.05
2022-08-07T19:36:04.353Z,27.89
2022-08-07T19:38:35.555Z,27.94
2022-08-07T19:41:39.280Z,27.94
2022-08-07T19:44:24.229Z,27.95
2022-08-07T19:47:12.005Z,27.86
2022-08-07T19:49:57.172Z,27.68
2022-08-07T19:52:28.167Z,27.63
2022-08-07T19:54:58.364Z,27.51
2022-08-07T19:58:00.974Z,27.54
2022-08-07T20:00:29.605Z,27.79
2022-08-07T20:03:03.845Z,27.77
2022-08-07T20:06:00.692Z,27.76
2022-08-07T20:08:32.657Z,27.86
2022-08-07T20:11:09.896Z,27.82
2022-08-07T20:13:46.871Z,27.86
2022-08-07T20:16:35.148Z,27.75
2022-08-07T20:19:11.071Z,27.68
2022-08-07T20:21:47.275Z,27.61
2022-08-07T20:24:32.469Z,27.68
2022-08-07T20:27:05.549Z,27.82
2022-08-07T20:29:48.312Z,27.78
2022-08-07T20:32:39.673Z,27.90
2022-08-07T20:35:12.656Z,27.66
2022-08-07T20:37:59.262Z,27.58
2022-08-07T20:40:32.184Z,27.58
2022-08-07T20:43:14.715Z,27.61
2022-08-07T20:46:26.720Z,27.56
2022-08-07T20:48:57.941Z,27.54
2022-08-07T20:51:35.830Z,27.41
2022-08-07T20:54:12.219Z,27.49
2022-08-07T20:56:52.984Z,27.32
2022-08-07T21:00:04.305Z,27.33
2022-08-07T21:02:35.926Z,27.48
2022-08-07T21:05:16.209Z,27.55
2022-08-07T21:07:49.780Z,27.54
2022-08-07T21:10:25.206Z,27.50
2022-08-07T21:13:03.730Z,27.45
2022-08-07T21:15:47.528Z,27.49
2022-08-07T21:18:29.617Z,27.28
2022-08-07T21:21:04.269Z,27.29
2022-08-07T21:23:50.480Z,27.10
2022-08-07T21:26:55.123Z,27.22
2022-08-07T21:29:30.772Z,27.25
2022-08-07T21:32:44.240Z,27.07
2022-08-07T21:35:11.549Z,26.68
2022-08-07T21:37:57.850Z,26.84
2022-08-07T21:40:51.428Z,26.89
2022-08-07T21:43:25.691Z,26.59
2022-08-07T21:46:37.102Z,26.60
2022-08-07T21:49:17.955Z,26.38
2022-08-07T21:52:11.398Z,26.43
2022-08-07T21:54:55.612Z,26.29
2022-08-07T21:57:44.935Z,26.58
2022-08-07T22:00:25.481Z,26.50
2022-08-07T22:03:11.135Z,26.54
2022-08-07T22:05:52.096Z,26.45
2022-08-07T22:08:24.729Z,26.40
2022-08-07T22:11:00.019Z,26.14
2022-08-07T22:13:50.065Z,25.89
2022-08-07T22:16:45.003Z,25.78
2022-08-07T22:19:43.880Z,25.91
2022-08-07T22:22:27.608Z,26.17
2022-08-07T22:25:08.160Z,26.36
2022-08-07T22:28:29.324Z,26.20
2022-08-07T22:30:59.078Z,25.88
2022-08-07T22:33:56.774Z,25.65
2022-08-07T22:37:02.357Z,25.97
2022-08-07T22:39:53.024Z,26.01
2022-08-07T22:42:29.695Z,25.75
2022-08-07T22:45:21.773Z,25.84
2022-08-07T22:47:55.616Z,25.38
2022-08-07T22:50:51.824Z,25.24
2022-08-07T22:54:07.049Z,25.13
2022-08-07T22:56:30.014Z,25.30
2022-08-07T22:59:32.869Z,25.52
2022-08-07T23:02:04.066Z,25.69
2022-08-07T23:06:07.113Z,25.76
2022-08-07T23:08:22.243Z,25.84
2022-08-07T23:11:13.212Z,25.59
2022-08-07T23:14:10.452Z,25.32
2022-08-07T23:16:54.978Z,25.65
2022-08-07T23:19:51.481Z,25.52
2022-08-07T23:22:47.214Z,25.45
2022-08-07T23:26:05.558Z,25.70
2022-08-07T23:28:56.481Z,25.36
2022-08-07T23:34:19.366Z,25.19
2022-08-07T23:35:07.522Z,25.14
2022-08-07T23:38:04.195Z,24.92
2022-08-07T23:40:53.347Z,24.80
2022-08-07T23:43:40.255Z,24.83
2022-08-07T23:46:27.270Z,25.04
2022-08-07T23:49:50.015Z,25.21
2022-08-07T23:53:02.155Z,25.29
2022-08-07T23:56:01.925Z,24.87
2022-08-07T23:58:50.020Z,24.84
